createdAt,value
2024-05-09T00:00:52.234Z,2.40
2024-05-09T00:03:22.713Z,3.45
2024-05-09T00:05:53.262Z,4.38
2024-05-09T00:08:24.099Z,3.72
2024-05-09T00:10:57.380Z,2.50
2024-05-09T00:13:27.874Z,4.15
2024-05-09T00:15:58.352Z,5.07
2024-05-09T00:18:28.860Z,2.85
2024-05-09T00:20:59.307Z,2.88
2024-05-09T00:23:29.855Z,2.95
2024-05-09T00:26:03.182Z,3.55
2024-05-09T00:28:34.132Z,2.80
2024-05-09T00:31:05.843Z,4.43
2024-05-09T00:33:36.450Z,2.78
2024-05-09T00:36:07.146Z,3.10
2024-05-09T00:38:38.158Z,4.47
2024-05-09T00:41:11.348Z,3.22
2024-05-09T00:43:42.491Z,4.40
2024-05-09T00:46:13.703Z,3.97
2024-05-09T00:48:44.265Z,3.90
2024-05-09T00:51:14.995Z,4.57
2024-05-09T00:53:45.918Z,2.90
2024-05-09T00:56:19.939Z,5.70
2024-05-09T00:58:51.770Z,3.30
2024-05-09T01:01:24.424Z,4.00
2024-05-09T01:03:55.250Z,3.20
2024-05-09T01:06:25.795Z,5.35
2024-05-09T01:08:56.216Z,3.65
2024-05-09T01:11:36.418Z,6.38
2024-05-09T01:14:07.197Z,5.38
2024-05-09T01:16:37.766Z,6.78
2024-05-09T01:19:08.971Z,4.20
2024-05-09T01:21:43.446Z,4.65
2024-05-09T01:24:16.539Z,3.47
2024-05-09T01:26:46.978Z,3.88
2024-05-09T01:29:17.532Z,4.30
2024-05-09T01:31:49.110Z,4.88
2024-05-09T01:34:20.059Z,5.95
2024-05-09T01:36:50.489Z,4.68
2024-05-09T01:39:23.450Z,5.10
2024-05-09T01:41:53.971Z,6.82
2024-05-09T01:44:25.053Z,4.00
2024-05-09T01:46:55.887Z,5.40
2024-05-09T01:49:26.625Z,3.85
2024-05-09T01:51:57.283Z,6.43
2024-05-09T01:54:30.560Z,5.57
2024-05-09T01:57:00.931Z,4.40
2024-05-09T01:59:31.953Z,6.07
2024-05-09T02:02:02.828Z,3.33
2024-05-09T02:04:33.528Z,5.18
2024-05-09T02:07:04.273Z,5.65
2024-05-09T02:09:37.553Z,4.13
2024-05-09T02:12:08.536Z,4.32
2024-05-09T02:14:39.142Z,4.72
2024-05-09T02:17:09.583Z,5.90
2024-05-09T02:19:40.212Z,6.05
2024-05-09T02:22:10.645Z,5.07
2024-05-09T02:24:43.662Z,4.00
2024-05-09T02:27:14.085Z,3.80
2024-05-09T02:29:44.692Z,3.67
2024-05-09T02:32:15.579Z,7.38
2024-05-09T02:34:46.478Z,6.15
2024-05-09T02:37:16.970Z,6.68
2024-05-09T02:39:47.380Z,5.32
2024-05-09T02:42:17.846Z,5.25
2024-05-09T02:44:46.035Z,5.18
2024-05-09T02:47:16.776Z,4.85
2024-05-09T02:49:44.694Z,4.43
2024-05-09T02:52:15.157Z,3.75
2024-05-09T02:54:42.935Z,4.93
2024-05-09T02:57:16.197Z,5.05
2024-05-09T02:59:44.126Z,6.38
2024-05-09T03:02:14.554Z,5.15
2024-05-09T03:04:42.905Z,4.57
2024-05-09T03:07:13.307Z,6.65
2024-05-09T03:09:46.463Z,4.50
2024-05-09T03:12:20.261Z,6.53
2024-05-09T03:14:50.664Z,4.60
2024-05-09T03:17:23.573Z,5.57
2024-05-09T03:19:51.532Z,7.65
2024-05-09T03:22:22.021Z,4.18
2024-05-09T03:24:49.777Z,10.05
2024-05-09T03:27:24.844Z,5.55
2024-05-09T03:29:52.703Z,6.32
2024-05-09T03:32:23.314Z,4.50
2024-05-09T03:34:51.778Z,5.80
2024-05-09T03:37:22.496Z,6.35
2024-05-09T03:39:53.927Z,6.85
2024-05-09T03:42:27.004Z,7.35
2024-05-09T03:44:57.858Z,6.47
2024-05-09T03:47:26.191Z,6.40
2024-05-09T03:49:56.632Z,10.90
2024-05-09T03:52:27.131Z,7.13
2024-05-09T03:54:54.958Z,7.57
2024-05-09T03:57:28.005Z,5.85
2024-05-09T03:59:55.765Z,7.25
2024-05-09T04:02:26.612Z,5.18
2024-05-09T04:04:54.670Z,5.45
2024-05-09T04:07:25.727Z,6.85
2024-05-09T04:09:55.144Z,4.50
2024-05-09T04:12:28.322Z,7.30
2024-05-09T04:14:56.568Z,6.55
2024-05-09T04:17:27.452Z,4.63
2024-05-09T04:19:55.510Z,4.85
2024-05-09T04:22:26.525Z,5.35
2024-05-09T04:24:54.320Z,5.65
2024-05-09T04:27:24.857Z,6.20
2024-05-09T04:29:55.368Z,6.20
2024-05-09T04:32:25.981Z,4.63
2024-05-09T04:34:54.392Z,4.43
2024-05-09T04:37:25.571Z,5.68
2024-05-09T04:39:53.396Z,5.82
2024-05-09T04:42:23.789Z,5.15
2024-05-09T04:44:54.186Z,4.93
2024-05-09T04:47:29.096Z,5.43
2024-05-09T04:49:57.130Z,7.88
2024-05-09T04:52:27.508Z,10.05
2024-05-09T04:54:58.430Z,5.85
2024-05-09T04:57:29.247Z,6.00
2024-05-09T04:59:58.035Z,4.85
2024-05-09T05:02:31.944Z,4.47
2024-05-09T05:05:00.037Z,4.43
2024-05-09T05:07:30.450Z,3.83
2024-05-09T05:09:58.391Z,6.03
2024-05-09T05:12:45.013Z,5.00
2024-05-09T05:15:15.691Z,4.30
2024-05-09T05:17:46.347Z,3.95
2024-05-09T05:20:24.480Z,5.28
2024-05-09T05:22:59.140Z,5.78
2024-05-09T05:25:29.708Z,4.75
2024-05-09T05:27:57.595Z,4.28
2024-05-09T05:30:32.800Z,5.43
2024-05-09T05:33:06.129Z,4.50
2024-05-09T05:35:37.101Z,4.72
2024-05-09T05:38:05.848Z,3.78
2024-05-09T05:40:38.374Z,4.25
2024-05-09T05:43:08.682Z,4.53
2024-05-09T05:45:39.560Z,4.03
2024-05-09T05:48:10.591Z,5.40
2024-05-09T05:50:41.227Z,5.03
2024-05-09T05:53:10.280Z,4.70
2024-05-09T05:55:41.350Z,5.32
2024-05-09T05:58:09.804Z,4.75
2024-05-09T06:00:41.093Z,7.78
2024-05-09T06:03:12.907Z,5.85
2024-05-09T06:05:46.041Z,9.07
2024-05-09T06:08:14.110Z,6.13
2024-05-09T06:10:44.986Z,3.88
2024-05-09T06:13:14.476Z,5.00
2024-05-09T06:15:45.705Z,4.72
2024-05-09T06:18:19.210Z,3.60
2024-05-09T06:20:47.312Z,3.63
2024-05-09T06:23:17.858Z,3.35
2024-05-09T06:25:45.731Z,3.28
2024-05-09T06:28:16.136Z,4.05
2024-05-09T06:30:43.909Z,3.72
2024-05-09T06:33:16.371Z,4.18
2024-05-09T06:35:47.358Z,2.70
2024-05-09T06:38:18.403Z,3.55
2024-05-09T06:40:46.855Z,3.40
2024-05-09T06:43:19.241Z,3.65
2024-05-09T06:45:48.927Z,4.70
2024-05-09T06:48:22.075Z,4.30
2024-05-09T06:50:53.180Z,6.90
2024-05-09T06:53:24.676Z,2.67
2024-05-09T06:55:52.930Z,4.20
2024-05-09T06:58:23.416Z,4.05
2024-05-09T07:00:51.391Z,3.60
2024-05-09T07:03:21.989Z,4.28
2024-05-09T07:05:50.190Z,4.50
2024-05-09T07:08:23.647Z,4.07
2024-05-09T07:10:51.651Z,4.15
2024-05-09T07:13:22.964Z,3.42
2024-05-09T07:15:50.780Z,3.30
2024-05-09T07:18:22.064Z,3.60
2024-05-09T07:20:50.724Z,3.42
2024-05-09T07:23:24.103Z,2.67
2024-05-09T07:25:52.030Z,4.47
2024-05-09T07:28:23.860Z,3.60
2024-05-09T07:30:51.640Z,5.28
2024-05-09T07:33:23.873Z,4.82
2024-05-09T07:35:52.937Z,2.72
2024-05-09T07:38:26.326Z,3.97
2024-05-09T07:40:54.990Z,3.78
2024-05-09T07:43:27.977Z,3.28
2024-05-09T07:45:58.268Z,3.70
2024-05-09T07:50:01.417Z,4.40
2024-05-09T07:53:58.281Z,3.38
2024-05-09T07:56:28.488Z,4.38
2024-05-09T07:58:59.016Z,2.97
2024-05-09T08:01:29.587Z,3.42
2024-05-09T08:03:57.641Z,2.58
2024-05-09T08:06:28.335Z,2.58
2024-05-09T08:09:02.808Z,7.30
2024-05-09T08:11:36.314Z,3.72
2024-05-09T08:14:04.350Z,2.55
2024-05-09T08:16:34.735Z,2.70
2024-05-09T08:19:03.323Z,4.65
2024-05-09T08:21:33.854Z,3.20
2024-05-09T08:24:04.465Z,2.17
2024-05-09T08:26:34.854Z,5.10
2024-05-09T08:29:02.628Z,2.83
2024-05-09T08:31:33.156Z,2.50
2024-05-09T08:34:01.459Z,2.40
2024-05-09T08:36:32.052Z,4.50
2024-05-09T08:38:59.902Z,2.40
2024-05-09T08:41:34.123Z,2.58
2024-05-09T08:44:03.363Z,3.03
2024-05-09T08:46:34.915Z,2.10
2024-05-09T08:49:04.040Z,2.20
2024-05-09T08:51:34.616Z,3.25
2024-05-09T08:54:02.755Z,3.22
2024-05-09T08:56:37.920Z,2.20
2024-05-09T08:59:09.093Z,2.80
2024-05-09T09:01:41.234Z,3.58
2024-05-09T09:04:11.210Z,2.70
2024-05-09T09:06:42.350Z,3.13
2024-05-09T09:09:10.788Z,2.35
2024-05-09T09:11:43.855Z,2.15
2024-05-09T09:14:12.128Z,2.38
2024-05-09T09:16:42.490Z,2.20
2024-05-09T09:19:10.385Z,3.72
2024-05-09T09:21:40.963Z,5.72
2024-05-09T09:24:10.003Z,3.08
2024-05-09T09:26:43.801Z,3.80
2024-05-09T09:29:11.631Z,3.58
2024-05-09T09:31:42.213Z,3.35
2024-05-09T09:34:10.266Z,2.67
2024-05-09T09:36:42.755Z,2.70
2024-05-09T09:39:10.782Z,2.28
2024-05-09T09:41:45.068Z,2.30
2024-05-09T09:44:13.412Z,2.42
2024-05-09T09:46:44.230Z,2.80
2024-05-09T09:49:12.740Z,2.13
2024-05-09T09:51:44.047Z,2.72
2024-05-09T09:54:12.286Z,3.13
2024-05-09T09:56:47.720Z,2.65
2024-05-09T09:59:17.275Z,2.38
2024-05-09T10:01:48.771Z,2.70
2024-05-09T10:04:18.804Z,4.50
2024-05-09T10:06:50.657Z,3.30
2024-05-09T10:09:18.879Z,3.03
2024-05-09T10:11:54.646Z,2.60
2024-05-09T10:14:30.957Z,2.80
2024-05-09T10:17:07.792Z,2.80
2024-05-09T10:19:35.690Z,3.58
2024-05-09T10:22:06.415Z,4.20
2024-05-09T10:24:50.375Z,2.50
2024-05-09T10:27:29.682Z,3.17
2024-05-09T10:29:58.389Z,2.20
2024-05-09T10:32:30.430Z,3.45
2024-05-09T10:35:01.333Z,2.60
2024-05-09T10:37:32.011Z,2.53
2024-05-09T10:40:00.199Z,3.47
2024-05-09T10:42:33.582Z,2.42
2024-05-09T10:45:03.435Z,2.92
2024-05-09T10:47:35.609Z,3.63
2024-05-09T10:50:07.724Z,2.83
2024-05-09T10:52:40.573Z,2.67
2024-05-09T10:55:08.527Z,3.05
2024-05-09T10:57:45.825Z,2.55
2024-05-09T11:00:23.176Z,2.30
2024-05-09T11:03:00.531Z,2.60
2024-05-09T11:05:28.632Z,2.70
2024-05-09T11:07:59.199Z,2.33
2024-05-09T11:10:33.548Z,2.38
2024-05-09T11:13:07.837Z,3.90
2024-05-09T11:15:40.117Z,2.35
2024-05-09T11:18:10.647Z,2.70
2024-05-09T11:20:39.084Z,3.20
2024-05-09T11:23:09.990Z,4.05
2024-05-09T11:25:38.032Z,3.97
2024-05-09T11:28:11.288Z,5.43
2024-05-09T11:30:39.245Z,2.67
2024-05-09T11:33:09.726Z,2.45
2024-05-09T11:35:37.573Z,4.18
2024-05-09T11:38:08.266Z,2.50
2024-05-09T11:40:36.437Z,2.55
2024-05-09T11:43:06.982Z,3.78
2024-05-09T11:45:37.736Z,2.97
2024-05-09T11:48:08.908Z,2.70
2024-05-09T11:50:36.883Z,3.88
2024-05-09T11:53:07.382Z,3.65
2024-05-09T11:55:36.692Z,3.00
2024-05-09T11:58:08.446Z,3.78
2024-05-09T12:00:39.136Z,3.05
2024-05-09T12:03:09.822Z,2.63
2024-05-09T12:05:37.829Z,5.53
2024-05-09T12:08:08.680Z,3.40
2024-05-09T12:10:37.163Z,3.72
2024-05-09T12:13:08.404Z,3.55
2024-05-09T12:15:39.421Z,3.60
2024-05-09T12:18:10.070Z,3.88
2024-05-09T12:20:39.906Z,3.38
2024-05-09T12:23:11.248Z,2.85
2024-05-09T12:25:39.763Z,5.28
2024-05-09T12:28:10.882Z,4.57
2024-05-09T12:30:41.741Z,3.38
2024-05-09T12:33:13.552Z,3.83
2024-05-09T12:35:44.428Z,3.53
2024-05-09T12:38:17.160Z,3.70
2024-05-09T12:40:44.998Z,3.65
2024-05-09T12:43:15.613Z,3.05
2024-05-09T12:45:46.601Z,3.70
2024-05-09T12:48:18.060Z,4.00
2024-05-09T12:50:46.322Z,6.25
2024-05-09T12:53:16.789Z,4.35
2024-05-09T12:55:53.254Z,4.82
2024-05-09T12:58:27.826Z,5.30
2024-05-09T13:00:58.427Z,3.60
2024-05-09T13:03:29.397Z,5.03
2024-05-09T13:05:57.313Z,4.35
2024-05-09T13:08:27.668Z,3.45
2024-05-09T13:10:56.169Z,3.90
2024-05-09T13:13:26.975Z,3.22
2024-05-09T13:15:54.867Z,3.20
2024-05-09T13:18:27.987Z,3.13
2024-05-09T13:20:55.861Z,3.35
2024-05-09T13:23:26.433Z,2.60
2024-05-09T13:25:54.219Z,3.08
2024-05-09T13:28:25.087Z,6.00
2024-05-09T13:30:53.033Z,3.85
2024-05-09T13:33:23.521Z,3.42
2024-05-09T13:35:54.133Z,4.18
2024-05-09T13:38:24.593Z,4.40
2024-05-09T13:40:52.707Z,6.05
2024-05-09T13:43:24.073Z,2.80
2024-05-09T13:45:54.594Z,3.33
2024-05-09T13:48:25.429Z,3.33
2024-05-09T13:50:56.606Z,3.85
2024-05-09T13:53:27.735Z,3.55
2024-05-09T13:55:55.557Z,4.05
2024-05-09T13:58:26.102Z,2.75
2024-05-09T14:00:54.205Z,4.85
2024-05-09T14:03:27.006Z,3.47
2024-05-09T14:05:57.875Z,3.13
2024-05-09T14:08:28.506Z,4.40
2024-05-09T14:10:56.613Z,5.57
2024-05-09T14:13:27.395Z,4.13
2024-05-09T14:15:55.464Z,3.83
2024-05-09T14:18:25.993Z,3.15
2024-05-09T14:20:53.771Z,3.35
2024-05-09T14:23:26.915Z,3.28
2024-05-09T14:25:54.661Z,4.93
2024-05-09T14:28:27.103Z,4.70
2024-05-09T14:30:56.826Z,4.35
2024-05-09T14:33:27.941Z,3.53
2024-05-09T14:35:55.850Z,4.53
2024-05-09T14:38:30.431Z,3.40
2024-05-09T14:40:58.288Z,3.72
2024-05-09T14:43:28.988Z,3.70
2024-05-09T14:45:57.548Z,3.47
2024-05-09T14:48:28.344Z,3.88
2024-05-09T14:50:56.759Z,4.38
2024-05-09T14:53:30.049Z,3.58
2024-05-09T14:55:57.933Z,3.30
2024-05-09T14:58:28.397Z,7.30
2024-05-09T15:00:56.303Z,4.07
2024-05-09T15:03:27.283Z,4.63
2024-05-09T15:05:55.427Z,4.07
2024-05-09T15:08:26.028Z,3.47
2024-05-09T15:10:57.062Z,3.67
2024-05-09T15:13:28.858Z,5.53
2024-05-09T15:15:56.789Z,4.35
2024-05-09T15:18:27.465Z,3.45
2024-05-09T15:20:55.486Z,4.53
2024-05-09T15:23:26.023Z,5.90
2024-05-09T15:25:56.464Z,3.83
2024-05-09T15:28:27.060Z,4.70
2024-05-09T15:30:55.228Z,4.88
2024-05-09T15:33:25.704Z,4.55
2024-05-09T15:35:53.614Z,4.97
2024-05-09T15:38:24.115Z,6.53
2024-05-09T15:40:52.029Z,5.85
2024-05-09T15:43:25.257Z,4.78
2024-05-09T15:45:53.963Z,5.07
2024-05-09T15:48:25.271Z,4.68
2024-05-09T15:50:53.099Z,5.95
2024-05-09T15:53:23.603Z,7.50
2024-05-09T15:55:51.868Z,7.45
2024-05-09T15:58:25.213Z,6.50
2024-05-09T16:00:53.100Z,6.05
2024-05-09T16:03:23.995Z,8.27
2024-05-09T16:05:52.071Z,5.00
2024-05-09T16:08:22.632Z,5.93
2024-05-09T16:10:50.632Z,6.50
2024-05-09T16:13:22.037Z,5.22
2024-05-09T16:15:53.156Z,9.25
2024-05-09T16:18:23.750Z,5.97
2024-05-09T16:20:58.742Z,5.15
2024-05-09T16:23:29.342Z,5.20
2024-05-09T16:25:57.494Z,8.73
2024-05-09T16:28:28.561Z,7.82
2024-05-09T16:31:01.475Z,5.43
2024-05-09T16:33:32.423Z,8.73
2024-05-09T16:36:00.558Z,6.55
2024-05-09T16:38:30.941Z,7.80
2024-05-09T16:40:58.921Z,8.57
2024-05-09T16:43:29.393Z,5.25
2024-05-09T16:46:00.326Z,5.28
2024-05-09T16:48:31.182Z,7.45
2024-05-09T16:50:59.129Z,6.15
2024-05-09T16:53:29.859Z,5.90
2024-05-09T16:55:58.147Z,5.88
2024-05-09T16:58:28.658Z,6.57
2024-05-09T17:00:59.249Z,9.90
2024-05-09T17:03:29.904Z,6.93
2024-05-09T17:05:57.849Z,6.47
2024-05-09T17:08:28.261Z,6.88
2024-05-09T17:10:57.018Z,6.95
2024-05-09T17:13:27.999Z,5.40
2024-05-09T17:15:58.678Z,7.88
2024-05-09T17:18:31.850Z,7.47
2024-05-09T17:20:59.782Z,7.22
2024-05-09T17:23:31.843Z,8.13
2024-05-09T17:26:04.115Z,8.77
2024-05-09T17:28:31.971Z,8.05
2024-05-09T17:31:02.397Z,9.23
2024-05-09T17:33:33.121Z,6.57
2024-05-09T17:36:03.674Z,8.68
2024-05-09T17:38:31.602Z,6.57
2024-05-09T17:41:02.109Z,8.93
2024-05-09T17:43:30.004Z,5.68
2024-05-09T17:46:00.928Z,8.55
2024-05-09T17:48:29.155Z,8.93
2024-05-09T17:51:02.198Z,6.30
2024-05-09T17:53:30.009Z,6.07
2024-05-09T17:56:01.673Z,7.28
2024-05-09T17:58:29.872Z,9.82
2024-05-09T18:01:00.393Z,11.00
2024-05-09T18:03:28.695Z,6.85
2024-05-09T18:06:02.075Z,7.47
2024-05-09T18:08:29.969Z,7.50
2024-05-09T18:11:00.942Z,6.68
2024-05-09T18:13:29.144Z,6.72
2024-05-09T18:15:59.547Z,7.32
2024-05-09T18:18:27.501Z,5.75
2024-05-09T18:20:57.911Z,6.82
2024-05-09T18:23:28.422Z,6.97
2024-05-09T18:25:58.837Z,7.35
2024-05-09T18:28:26.903Z,7.10
2024-05-09T18:30:57.466Z,7.93
2024-05-09T18:33:25.436Z,7.38
2024-05-09T18:35:55.998Z,7.35
2024-05-09T18:38:26.886Z,7.50
2024-05-09T18:41:00.302Z,7.53
2024-05-09T18:43:34.846Z,7.35
2024-05-09T18:46:09.566Z,6.78
2024-05-09T18:48:37.625Z,7.78
2024-05-09T18:51:08.252Z,6.60
2024-05-09T18:53:36.209Z,8.88
2024-05-09T18:56:10.136Z,7.15
2024-05-09T18:58:38.485Z,6.70
2024-05-09T19:01:09.173Z,6.90
2024-05-09T19:03:37.434Z,6.38
2024-05-09T19:06:08.051Z,7.05
2024-05-09T19:08:36.007Z,10.38
2024-05-09T19:11:09.572Z,7.88
2024-05-09T19:13:37.834Z,7.93
2024-05-09T19:16:08.634Z,10.60
2024-05-09T19:18:36.935Z,10.38
2024-05-09T19:21:07.534Z,11.10
2024-05-09T19:23:38.129Z,6.85
2024-05-09T19:26:13.898Z,7.65
2024-05-09T19:28:41.804Z,6.68
2024-05-09T19:31:12.290Z,8.32
2024-05-09T19:33:40.179Z,6.97
2024-05-09T19:36:10.845Z,6.38
2024-05-09T19:38:38.782Z,7.63
2024-05-09T19:41:09.199Z,6.57
2024-05-09T19:43:40.255Z,7.53
2024-05-09T19:46:11.094Z,7.88
2024-05-09T19:48:39.051Z,6.30
2024-05-09T19:51:09.763Z,6.60
2024-05-09T19:53:37.665Z,7.93
2024-05-09T19:56:08.342Z,7.22
2024-05-09T19:58:36.416Z,6.05
2024-05-09T20:01:09.994Z,7.38
2024-05-09T20:03:38.076Z,8.35
2024-05-09T20:06:08.674Z,6.68
2024-05-09T20:08:36.541Z,7.75
2024-05-09T20:11:07.433Z,7.22
2024-05-09T20:13:35.600Z,8.48
2024-05-09T20:16:06.795Z,6.68
2024-05-09T20:18:37.313Z,7.35
2024-05-09T20:21:08.947Z,6.85
2024-05-09T20:23:36.922Z,7.80
2024-05-09T20:26:07.392Z,6.22
2024-05-09T20:28:35.751Z,6.93
2024-05-09T20:31:06.355Z,7.93
2024-05-09T20:33:34.504Z,7.13
2024-05-09T20:36:09.021Z,7.00
2024-05-09T20:38:36.829Z,6.75
2024-05-09T20:41:07.236Z,7.95
2024-05-09T20:43:35.359Z,6.43
2024-05-09T20:46:06.806Z,6.70
2024-05-09T20:48:34.888Z,7.10
2024-05-09T20:51:08.215Z,8.60
2024-05-09T20:53:36.020Z,7.53
2024-05-09T20:56:06.437Z,9.02
2024-05-09T20:58:34.324Z,7.60
2024-05-09T21:01:05.250Z,8.88
2024-05-09T21:03:35.437Z,8.80
2024-05-09T21:06:08.792Z,8.07
2024-05-09T21:08:36.815Z,8.70
2024-05-09T21:11:07.363Z,7.97
2024-05-09T21:13:35.803Z,9.70
2024-05-09T21:16:06.247Z,9.40
2024-05-09T21:18:34.280Z,11.25
2024-05-09T21:21:04.764Z,9.68
2024-05-09T21:23:35.321Z,9.07
2024-05-09T21:26:05.745Z,10.38
2024-05-09T21:28:33.646Z,9.15
2024-05-09T21:31:04.278Z,10.68
2024-05-09T21:33:32.246Z,9.18
2024-05-09T21:36:02.824Z,10.20
2024-05-09T21:38:30.760Z,8.55
2024-05-09T21:41:03.753Z,10.93
2024-05-09T21:43:31.719Z,12.77
2024-05-09T21:46:02.528Z,11.95
2024-05-09T21:48:30.798Z,10.82
2024-05-09T21:51:01.212Z,11.82
2024-05-09T21:53:28.973Z,11.63
2024-05-09T21:55:59.365Z,9.57
2024-05-09T21:58:30.062Z,12.95
2024-05-09T22:01:01.139Z,11.60
2024-05-09T22:03:29.429Z,12.38
2024-05-09T22:05:59.891Z,13.35
2024-05-09T22:08:27.669Z,14.63
2024-05-09T22:10:58.495Z,11.15
2024-05-09T22:13:29.245Z,16.67
2024-05-09T22:15:59.734Z,15.40
2024-05-09T22:18:27.571Z,12.45
2024-05-09T22:20:58.024Z,14.77
2024-05-09T22:23:25.886Z,12.32
2024-05-09T22:25:56.274Z,14.23
2024-05-09T22:28:24.581Z,13.82
2024-05-09T22:30:57.968Z,13.30
2024-05-09T22:33:25.860Z,12.73
2024-05-09T22:35:56.286Z,13.25
2024-05-09T22:38:24.142Z,13.20
2024-05-09T22:40:54.877Z,13.63
2024-05-09T22:43:24.586Z,14.40
2024-05-09T22:45:58.864Z,13.23
2024-05-09T22:48:27.051Z,11.45
2024-05-09T22:50:57.557Z,11.52
2024-05-09T22:53:26.029Z,12.27
2024-05-09T22:55:56.812Z,11.95
2024-05-09T22:58:24.747Z,13.85
2024-05-09T23:00:57.902Z,12.77
2024-05-09T23:03:26.344Z,14.10
2024-05-09T23:05:57.112Z,15.27
2024-05-09T23:08:24.971Z,15.52
2024-05-09T23:10:55.346Z,12.05
2024-05-09T23:13:23.561Z,11.88
2024-05-09T23:15:54.170Z,14.43
2024-05-09T23:18:24.628Z,15.43
2024-05-09T23:20:55.026Z,11.82
2024-05-09T23:23:23.146Z,14.27
2024-05-09T23:25:53.567Z,10.70
2024-05-09T23:28:21.434Z,13.75
2024-05-09T23:30:52.019Z,13.40
2024-05-09T23:33:20.012Z,14.38
2024-05-09T23:35:53.474Z,12.85
2024-05-09T23:38:23.747Z,14.20
2024-05-09T23:40:54.561Z,12.32
2024-05-09T23:43:22.473Z,17.02
2024-05-09T23:45:53.462Z,11.98
2024-05-09T23:48:21.721Z,12.75
2024-05-09T23:50:55.090Z,12.43
2024-05-09T23:53:25.530Z,12.23
2024-05-09T23:55:53.352Z,12.45
2024-05-09T23:58:23.999Z,12.00
